ASA65 PAJN-PANC
Flight info
| Callsign | ASA65 |
|---|---|
| Flight time | 1h 37m |
| Altitude | 40000 |
| Route | CHLKT2 ALATY JOH WITTI5 |
| Aircraft | B737/M-SDE2E3FGHIRWXY/LB1 |
Departure
| Time | 2026-05-03 21:30 |
|---|---|
| Airport | Juneau International Airport (PAJN) |
Arrival
| Time | 2026-05-03 23:07 |
|---|---|
| Airport | Ted Stevens Anchorage International Airport (PANC) |
| Time | Latitude | Longitude | Altitude | Speed | Heading |
|---|---|---|---|---|---|
| 2026-05-03 21:19 | 58.35832 | -134.58365 | -5 ft | 0 kts | 19° |
| 2026-05-03 21:25 | 58.35831 | -134.58365 | -5 ft | 0 kts | 19° |
| 2026-05-03 21:25 | 58.35819 | -134.58374 | -5 ft | 2 kts | 21° |
| 2026-05-03 21:25 | 58.35805 | -134.58385 | -6 ft | 2 kts | 20° |
| 2026-05-03 21:25 | 58.35796 | -134.58392 | -6 ft | 1 kts | 22° |
| 2026-05-03 21:26 | 58.35789 | -134.58395 | -6 ft | 1 kts | 329° |
| 2026-05-03 21:26 | 58.35785 | -134.58386 | -6 ft | 0 kts | 289° |
| 2026-05-03 21:26 | 58.35784 | -134.58374 | -6 ft | 1 kts | 283° |
| 2026-05-03 21:26 | 58.35783 | -134.58372 | -6 ft | 0 kts | 284° |
| 2026-05-03 21:27 | 58.35786 | -134.58418 | -7 ft | 9 kts | 276° |
| 2026-05-03 21:28 | 58.35802 | -134.58575 | -7 ft | 9 kts | 264° |
| 2026-05-03 21:28 | 58.35757 | -134.58664 | -7 ft | 10 kts | 251° |
| 2026-05-03 21:28 | 58.35779 | -134.58858 | -7 ft | 21 kts | 284° |
| 2026-05-03 21:28 | 58.35818 | -134.59140 | -7 ft | 21 kts | 284° |
| 2026-05-03 21:29 | 58.35856 | -134.59418 | -7 ft | 21 kts | 285° |
| 2026-05-03 21:29 | 58.35855 | -134.59633 | -9 ft | 14 kts | 214° |
| 2026-05-03 21:29 | 58.35767 | -134.59581 | -7 ft | 23 kts | 106° |
| 2026-05-03 21:29 | 58.35656 | -134.58784 | -7 ft | 99 kts | 104° |
| 2026-05-03 21:30 | 58.35423 | -134.57124 | 53 ft | 153 kts | 105° |
| 2026-05-03 21:30 | 58.35110 | -134.55173 | 787 ft | 157 kts | 108° |
| 2026-05-03 21:30 | 58.34771 | -134.53245 | 1546 ft | 160 kts | 112° |
| 2026-05-03 21:30 | 58.34174 | -134.51511 | 2311 ft | 165 kts | 136° |
| 2026-05-03 21:31 | 58.33282 | -134.50001 | 2992 ft | 178 kts | 139° |
| 2026-05-03 21:31 | 58.32356 | -134.48320 | 3617 ft | 196 kts | 136° |
| 2026-05-03 21:31 | 58.31360 | -134.46420 | 4319 ft | 212 kts | 137° |
| 2026-05-03 21:31 | 58.30273 | -134.44345 | 5026 ft | 229 kts | 136° |
| 2026-05-03 21:32 | 58.29155 | -134.42062 | 5677 ft | 248 kts | 135° |
| 2026-05-03 21:32 | 58.27966 | -134.39539 | 6358 ft | 265 kts | 134° |
| 2026-05-03 21:32 | 58.26695 | -134.36848 | 6994 ft | 284 kts | 135° |
| 2026-05-03 21:32 | 58.25350 | -134.34027 | 7829 ft | 294 kts | 135° |
| 2026-05-03 21:33 | 58.23915 | -134.31264 | 8687 ft | 299 kts | 144° |
| 2026-05-03 21:33 | 58.22129 | -134.29283 | 9495 ft | 298 kts | 169° |
| 2026-05-03 21:33 | 58.20132 | -134.28854 | 10298 ft | 294 kts | 191° |
| 2026-05-03 21:33 | 58.18116 | -134.29636 | 10929 ft | 299 kts | 205° |
| 2026-05-03 21:34 | 58.16229 | -134.31357 | 11571 ft | 302 kts | 223° |
| 2026-05-03 21:34 | 58.14865 | -134.34244 | 12542 ft | 292 kts | 245° |
| 2026-05-03 21:34 | 58.14113 | -134.37732 | 13427 ft | 289 kts | 258° |
| 2026-05-03 21:34 | 58.13794 | -134.41429 | 14249 ft | 290 kts | 270° |
| 2026-05-03 21:35 | 58.14167 | -134.45184 | 15048 ft | 294 kts | 289° |
| 2026-05-03 21:35 | 58.14951 | -134.48750 | 15612 ft | 303 kts | 292° |
| 2026-05-03 21:35 | 58.15830 | -134.52574 | 16025 ft | 323 kts | 292° |
| 2026-05-03 21:35 | 58.16684 | -134.56486 | 16752 ft | 328 kts | 291° |
| 2026-05-03 21:36 | 58.17539 | -134.60461 | 17546 ft | 330 kts | 291° |
| 2026-05-03 21:36 | 58.18557 | -134.64433 | 18180 ft | 337 kts | 298° |
| 2026-05-03 21:36 | 58.19942 | -134.68048 | 18954 ft | 343 kts | 307° |
| 2026-05-03 21:36 | 58.21567 | -134.71277 | 19666 ft | 347 kts | 311° |
| 2026-05-03 21:37 | 58.23317 | -134.74434 | 20369 ft | 351 kts | 313° |
| 2026-05-03 21:37 | 58.25132 | -134.77620 | 21047 ft | 355 kts | 313° |
| 2026-05-03 21:37 | 58.26942 | -134.80803 | 21695 ft | 358 kts | 313° |
| 2026-05-03 21:37 | 58.28746 | -134.84004 | 22340 ft | 361 kts | 313° |
| 2026-05-03 21:38 | 58.30583 | -134.87291 | 22955 ft | 364 kts | 313° |
| 2026-05-03 21:38 | 58.32409 | -134.90584 | 23619 ft | 366 kts | 313° |
| 2026-05-03 21:38 | 58.34265 | -134.93944 | 24195 ft | 369 kts | 312° |
| 2026-05-03 21:38 | 58.36128 | -134.97328 | 24862 ft | 370 kts | 312° |
| 2026-05-03 21:39 | 58.37969 | -135.00681 | 25404 ft | 374 kts | 311° |
| 2026-05-03 21:39 | 58.39847 | -135.04108 | 26009 ft | 376 kts | 311° |
| 2026-05-03 21:39 | 58.41711 | -135.07629 | 26557 ft | 377 kts | 309° |
| 2026-05-03 21:39 | 58.43438 | -135.11365 | 27169 ft | 376 kts | 305° |
| 2026-05-03 21:40 | 58.44971 | -135.15337 | 27620 ft | 378 kts | 301° |
| 2026-05-03 21:40 | 58.46423 | -135.19528 | 28230 ft | 377 kts | 300° |
| 2026-05-03 21:40 | 58.47819 | -135.23718 | 28715 ft | 380 kts | 299° |
| 2026-05-03 21:40 | 58.49224 | -135.27980 | 29207 ft | 382 kts | 299° |
| 2026-05-03 21:41 | 58.50638 | -135.32271 | 29729 ft | 383 kts | 299° |
| 2026-05-03 21:41 | 58.52075 | -135.36626 | 30202 ft | 385 kts | 298° |
| 2026-05-03 21:41 | 58.53495 | -135.40927 | 30615 ft | 388 kts | 299° |
| 2026-05-03 21:41 | 58.54946 | -135.45316 | 31145 ft | 388 kts | 299° |
| 2026-05-03 21:42 | 58.56371 | -135.49629 | 31498 ft | 391 kts | 299° |
| 2026-05-03 21:42 | 58.57819 | -135.54013 | 31960 ft | 392 kts | 298° |
| 2026-05-03 21:42 | 58.59276 | -135.58429 | 32428 ft | 393 kts | 298° |
| 2026-05-03 21:42 | 58.60727 | -135.62833 | 32924 ft | 392 kts | 298° |
| 2026-05-03 21:43 | 58.62186 | -135.67264 | 33493 ft | 390 kts | 297° |
| 2026-05-03 21:43 | 58.63613 | -135.71605 | 34259 ft | 383 kts | 297° |
| 2026-05-03 21:43 | 58.65013 | -135.75867 | 34934 ft | 379 kts | 297° |
| 2026-05-03 21:43 | 58.66397 | -135.80090 | 35503 ft | 376 kts | 296° |
| 2026-05-03 21:44 | 58.67800 | -135.84386 | 35912 ft | 377 kts | 296° |
| 2026-05-03 21:44 | 58.69168 | -135.88585 | 36517 ft | 372 kts | 297° |
| 2026-05-03 21:44 | 58.70526 | -135.92758 | 37074 ft | 369 kts | 297° |
| 2026-05-03 21:44 | 58.71885 | -135.96942 | 37438 ft | 369 kts | 297° |
| 2026-05-03 21:45 | 58.73231 | -136.01105 | 37720 ft | 371 kts | 297° |
| 2026-05-03 21:45 | 58.74587 | -136.05299 | 38198 ft | 368 kts | 297° |
| 2026-05-03 21:45 | 58.75927 | -136.09445 | 38602 ft | 366 kts | 296° |
| 2026-05-03 21:45 | 58.77264 | -136.13592 | 38881 ft | 367 kts | 297° |
| 2026-05-03 21:46 | 58.78618 | -136.17799 | 39250 ft | 365 kts | 296° |
| 2026-05-03 21:46 | 58.79946 | -136.21936 | 39543 ft | 365 kts | 296° |
| 2026-05-03 21:46 | 58.81266 | -136.26051 | 39873 ft | 364 kts | 296° |
| 2026-05-03 21:46 | 58.82590 | -136.30188 | 40092 ft | 365 kts | 297° |
| 2026-05-03 21:47 | 58.83918 | -136.34346 | 40242 ft | 366 kts | 297° |
| 2026-05-03 21:47 | 58.85268 | -136.38580 | 40300 ft | 369 kts | 297° |
| 2026-05-03 21:47 | 58.87958 | -136.47049 | 40303 ft | 376 kts | 296° |
| 2026-05-03 21:48 | 58.90689 | -136.55667 | 40297 ft | 382 kts | 297° |
| 2026-05-03 21:48 | 58.93466 | -136.64450 | 40263 ft | 384 kts | 296° |
| 2026-05-03 21:49 | 58.96237 | -136.73254 | 40238 ft | 386 kts | 296° |
| 2026-05-03 21:49 | 58.99028 | -136.82150 | 40234 ft | 386 kts | 296° |
| 2026-05-03 21:50 | 59.01806 | -136.91045 | 40267 ft | 387 kts | 296° |
| 2026-05-03 21:50 | 59.04574 | -136.99933 | 40281 ft | 388 kts | 296° |
| 2026-05-03 21:51 | 59.07360 | -137.08911 | 40240 ft | 389 kts | 296° |
| 2026-05-03 21:51 | 59.10119 | -137.17844 | 40191 ft | 384 kts | 296° |
| 2026-05-03 21:52 | 59.12861 | -137.26755 | 40180 ft | 387 kts | 295° |
| 2026-05-03 21:52 | 59.15593 | -137.35673 | 40173 ft | 387 kts | 295° |
| 2026-05-03 21:53 | 59.18337 | -137.44655 | 40172 ft | 386 kts | 296° |
| 2026-05-03 21:53 | 59.21072 | -137.53651 | 40167 ft | 387 kts | 295° |
| 2026-05-03 21:54 | 59.23798 | -137.62659 | 40180 ft | 387 kts | 295° |
| 2026-05-03 21:54 | 59.26539 | -137.71745 | 40155 ft | 387 kts | 294° |
| 2026-05-03 21:55 | 59.29251 | -137.80762 | 40178 ft | 387 kts | 294° |
| 2026-05-03 21:55 | 59.31953 | -137.89778 | 40184 ft | 386 kts | 294° |
| 2026-05-03 21:56 | 59.34669 | -137.98889 | 40202 ft | 387 kts | 294° |
| 2026-05-03 21:56 | 59.37363 | -138.07960 | 40210 ft | 388 kts | 294° |
| 2026-05-03 21:57 | 59.40069 | -138.17108 | 40212 ft | 389 kts | 294° |
| 2026-05-03 21:57 | 59.42473 | -138.26472 | 40217 ft | 382 kts | 287° |
| 2026-05-03 21:58 | 59.44162 | -138.36304 | 40233 ft | 382 kts | 283° |
| 2026-05-03 21:58 | 59.45739 | -138.46287 | 40241 ft | 383 kts | 283° |
| 2026-05-03 21:59 | 59.47337 | -138.56270 | 40266 ft | 383 kts | 283° |
| 2026-05-03 21:59 | 59.48932 | -138.66238 | 40255 ft | 384 kts | 283° |
| 2026-05-03 22:00 | 59.50516 | -138.76178 | 40240 ft | 382 kts | 283° |
| 2026-05-03 22:00 | 59.52087 | -138.86130 | 40242 ft | 385 kts | 283° |
| 2026-05-03 22:01 | 59.53662 | -138.96168 | 40252 ft | 385 kts | 283° |
| 2026-05-03 22:01 | 59.55234 | -139.06236 | 40267 ft | 386 kts | 283° |
| 2026-05-03 22:02 | 59.56802 | -139.16330 | 40276 ft | 386 kts | 282° |
| 2026-05-03 22:02 | 59.58353 | -139.26358 | 40259 ft | 384 kts | 282° |
| 2026-05-03 22:03 | 59.59900 | -139.36427 | 40276 ft | 385 kts | 282° |
| 2026-05-03 22:03 | 59.61438 | -139.46498 | 40287 ft | 384 kts | 282° |
| 2026-05-03 22:04 | 59.62967 | -139.56583 | 40277 ft | 384 kts | 282° |
| 2026-05-03 22:04 | 59.64491 | -139.66679 | 40294 ft | 383 kts | 281° |
| 2026-05-03 22:05 | 59.65997 | -139.76723 | 40327 ft | 386 kts | 281° |
| 2026-05-03 22:05 | 59.67507 | -139.86862 | 40322 ft | 383 kts | 281° |
| 2026-05-03 22:06 | 59.68999 | -139.96936 | 40318 ft | 383 kts | 281° |
| 2026-05-03 22:06 | 59.70482 | -140.07024 | 40329 ft | 383 kts | 281° |
| 2026-05-03 22:07 | 59.71967 | -140.17178 | 40303 ft | 383 kts | 281° |
| 2026-05-03 22:07 | 59.73438 | -140.27263 | 40289 ft | 384 kts | 281° |
| 2026-05-03 22:08 | 59.74911 | -140.37462 | 40289 ft | 385 kts | 281° |
| 2026-05-03 22:08 | 59.76360 | -140.47554 | 40305 ft | 383 kts | 281° |
| 2026-05-03 22:09 | 59.77806 | -140.57689 | 40277 ft | 381 kts | 281° |
| 2026-05-03 22:10 | 59.79961 | -140.72917 | 40284 ft | 382 kts | 280° |
| 2026-05-03 22:10 | 59.81385 | -140.83048 | 40287 ft | 381 kts | 280° |
| 2026-05-03 22:11 | 59.82795 | -140.93153 | 40280 ft | 381 kts | 280° |
| 2026-05-03 22:11 | 59.84194 | -141.03239 | 40283 ft | 380 kts | 280° |
| 2026-05-03 22:12 | 59.85591 | -141.13359 | 40281 ft | 382 kts | 279° |
| 2026-05-03 22:12 | 59.86980 | -141.23515 | 40267 ft | 383 kts | 279° |
| 2026-05-03 22:13 | 59.88362 | -141.33678 | 40281 ft | 383 kts | 279° |
| 2026-05-03 22:13 | 59.89742 | -141.43880 | 40275 ft | 382 kts | 279° |
| 2026-05-03 22:14 | 59.91117 | -141.54103 | 40275 ft | 384 kts | 279° |
| 2026-05-03 22:14 | 59.92486 | -141.64354 | 40269 ft | 384 kts | 279° |
| 2026-05-03 22:15 | 59.93840 | -141.74587 | 40280 ft | 385 kts | 279° |
| 2026-05-03 22:15 | 59.95196 | -141.84886 | 40276 ft | 387 kts | 278° |
| 2026-05-03 22:16 | 59.96559 | -141.95288 | 40274 ft | 386 kts | 278° |
| 2026-05-03 22:16 | 59.97906 | -142.05667 | 40273 ft | 390 kts | 278° |
| 2026-05-03 22:17 | 59.99247 | -142.16064 | 40263 ft | 386 kts | 278° |
| 2026-05-03 22:17 | 60.00579 | -142.26439 | 40273 ft | 386 kts | 278° |
| 2026-05-03 22:18 | 60.01897 | -142.36804 | 40259 ft | 387 kts | 278° |
| 2026-05-03 22:18 | 60.03209 | -142.47186 | 40257 ft | 386 kts | 277° |
| 2026-05-03 22:19 | 60.04510 | -142.57558 | 40246 ft | 388 kts | 278° |
| 2026-05-03 22:19 | 60.05811 | -142.67989 | 40246 ft | 389 kts | 277° |
| 2026-05-03 22:20 | 60.07102 | -142.78435 | 40244 ft | 385 kts | 277° |
| 2026-05-03 22:20 | 60.08375 | -142.88802 | 40248 ft | 387 kts | 277° |
| 2026-05-03 22:21 | 60.09654 | -142.99291 | 40237 ft | 387 kts | 277° |
| 2026-05-03 22:21 | 60.10919 | -143.09714 | 40233 ft | 386 kts | 277° |
| 2026-05-03 22:22 | 60.12164 | -143.20088 | 40231 ft | 388 kts | 277° |
| 2026-05-03 22:22 | 60.13417 | -143.30600 | 40233 ft | 389 kts | 277° |
| 2026-05-03 22:23 | 60.14667 | -143.41148 | 40223 ft | 388 kts | 276° |
| 2026-05-03 22:23 | 60.15901 | -143.51627 | 40208 ft | 387 kts | 277° |
| 2026-05-03 22:24 | 60.17129 | -143.62174 | 40210 ft | 392 kts | 276° |
| 2026-05-03 22:24 | 60.18357 | -143.72768 | 40212 ft | 388 kts | 276° |
| 2026-05-03 22:25 | 60.19567 | -143.83319 | 40200 ft | 392 kts | 276° |
| 2026-05-03 22:25 | 60.20776 | -143.93927 | 40178 ft | 390 kts | 276° |
| 2026-05-03 22:26 | 60.21984 | -144.04610 | 40204 ft | 392 kts | 276° |
| 2026-05-03 22:26 | 60.23178 | -144.15218 | 40178 ft | 392 kts | 276° |
| 2026-05-03 22:27 | 60.24371 | -144.25937 | 40185 ft | 392 kts | 276° |
| 2026-05-03 22:27 | 60.25555 | -144.36658 | 40192 ft | 395 kts | 276° |
| 2026-05-03 22:28 | 60.26722 | -144.47327 | 40173 ft | 393 kts | 276° |
| 2026-05-03 22:28 | 60.27892 | -144.58079 | 40192 ft | 394 kts | 276° |
| 2026-05-03 22:29 | 60.29059 | -144.68870 | 40200 ft | 394 kts | 275° |
| 2026-05-03 22:29 | 60.30209 | -144.79597 | 40192 ft | 393 kts | 275° |
| 2026-05-03 22:30 | 60.31350 | -144.90346 | 40199 ft | 395 kts | 275° |
| 2026-05-03 22:30 | 60.32489 | -145.01199 | 40207 ft | 395 kts | 275° |
| 2026-05-03 22:31 | 60.33620 | -145.12048 | 40181 ft | 397 kts | 275° |
| 2026-05-03 22:31 | 60.34731 | -145.22662 | 40205 ft | 373 kts | 275° |
| 2026-05-03 22:31 | 60.35252 | -145.27622 | 40175 ft | 358 kts | 274° |
| 2026-05-03 22:32 | 60.35754 | -145.32454 | 40183 ft | 349 kts | 274° |
| 2026-05-03 22:32 | 60.36726 | -145.42137 | 40197 ft | 356 kts | 274° |
| 2026-05-03 22:33 | 60.37707 | -145.51985 | 40196 ft | 359 kts | 274° |
| 2026-05-03 22:33 | 60.38693 | -145.61855 | 40196 ft | 359 kts | 274° |
| 2026-05-03 22:34 | 60.39677 | -145.71730 | 40177 ft | 359 kts | 273° |
| 2026-05-03 22:34 | 60.40629 | -145.81249 | 40160 ft | 334 kts | 273° |
| 2026-05-03 22:35 | 60.41522 | -145.90300 | 40179 ft | 327 kts | 273° |
| 2026-05-03 22:35 | 60.42388 | -145.99396 | 40165 ft | 333 kts | 272° |
| 2026-05-03 22:36 | 60.43270 | -146.08580 | 40181 ft | 332 kts | 272° |
| 2026-05-03 22:36 | 60.44147 | -146.17723 | 40166 ft | 334 kts | 272° |
| 2026-05-03 22:37 | 60.45016 | -146.26866 | 40161 ft | 333 kts | 272° |
| 2026-05-03 22:37 | 60.45885 | -146.36084 | 40167 ft | 334 kts | 273° |
| 2026-05-03 22:38 | 60.46754 | -146.45363 | 40171 ft | 333 kts | 273° |
| 2026-05-03 22:38 | 60.47607 | -146.54579 | 40188 ft | 337 kts | 273° |
| 2026-05-03 22:39 | 60.48710 | -146.63811 | 40175 ft | 339 kts | 279° |
| 2026-05-03 22:39 | 60.50211 | -146.72939 | 40171 ft | 348 kts | 279° |
| 2026-05-03 22:40 | 60.51779 | -146.82310 | 40184 ft | 356 kts | 279° |
| 2026-05-03 22:40 | 60.53359 | -146.91901 | 40192 ft | 364 kts | 280° |
| 2026-05-03 22:41 | 60.54957 | -147.01695 | 40176 ft | 372 kts | 279° |
| 2026-05-03 22:41 | 60.56594 | -147.11786 | 40197 ft | 380 kts | 280° |
| 2026-05-03 22:42 | 60.58246 | -147.22028 | 40182 ft | 388 kts | 279° |
| 2026-05-03 22:42 | 60.59090 | -147.27286 | 39923 ft | 395 kts | 280° |
| 2026-05-03 22:42 | 60.59946 | -147.32643 | 38987 ft | 406 kts | 280° |
| 2026-05-03 22:42 | 60.60822 | -147.38148 | 38136 ft | 407 kts | 279° |
| 2026-05-03 22:43 | 60.61691 | -147.43558 | 37579 ft | 398 kts | 279° |
| 2026-05-03 22:43 | 60.62543 | -147.48846 | 36949 ft | 389 kts | 278° |
| 2026-05-03 22:43 | 60.63374 | -147.54011 | 36355 ft | 381 kts | 278° |
| 2026-05-03 22:43 | 60.64179 | -147.59076 | 35816 ft | 380 kts | 277° |
| 2026-05-03 22:44 | 60.64974 | -147.64143 | 35154 ft | 381 kts | 276° |
| 2026-05-03 22:44 | 60.65784 | -147.69336 | 34429 ft | 384 kts | 276° |
| 2026-05-03 22:44 | 60.66582 | -147.74480 | 33588 ft | 385 kts | 276° |
| 2026-05-03 22:44 | 60.67391 | -147.79694 | 32805 ft | 385 kts | 276° |
| 2026-05-03 22:45 | 60.68193 | -147.84882 | 32043 ft | 386 kts | 277° |
| 2026-05-03 22:45 | 60.68988 | -147.90031 | 31264 ft | 389 kts | 277° |
| 2026-05-03 22:45 | 60.69804 | -147.95338 | 30464 ft | 393 kts | 277° |
| 2026-05-03 22:45 | 60.70618 | -148.00653 | 29877 ft | 394 kts | 277° |
| 2026-05-03 22:46 | 60.71439 | -148.06029 | 29260 ft | 398 kts | 277° |
| 2026-05-03 22:46 | 60.72253 | -148.11389 | 28647 ft | 392 kts | 278° |
| 2026-05-03 22:46 | 60.73064 | -148.16656 | 28030 ft | 387 kts | 278° |
| 2026-05-03 22:46 | 60.73862 | -148.21841 | 27414 ft | 381 kts | 278° |
| 2026-05-03 22:47 | 60.74648 | -148.26955 | 26820 ft | 376 kts | 278° |
| 2026-05-03 22:47 | 60.75418 | -148.32051 | 26213 ft | 374 kts | 279° |
| 2026-05-03 22:47 | 60.76178 | -148.37164 | 25588 ft | 376 kts | 278° |
| 2026-05-03 22:47 | 60.76942 | -148.42343 | 24958 ft | 380 kts | 278° |
| 2026-05-03 22:48 | 60.77700 | -148.47466 | 24340 ft | 375 kts | 279° |
| 2026-05-03 22:48 | 60.78448 | -148.52504 | 23722 ft | 371 kts | 279° |
| 2026-05-03 22:48 | 60.79192 | -148.57530 | 23102 ft | 368 kts | 279° |
| 2026-05-03 22:48 | 60.79932 | -148.62563 | 22479 ft | 364 kts | 279° |
| 2026-05-03 22:49 | 60.80656 | -148.67509 | 21869 ft | 360 kts | 279° |
| 2026-05-03 22:49 | 60.81350 | -148.72331 | 21265 ft | 358 kts | 279° |
| 2026-05-03 22:49 | 60.82068 | -148.77240 | 20653 ft | 355 kts | 279° |
| 2026-05-03 22:49 | 60.82772 | -148.82057 | 20060 ft | 352 kts | 279° |
| 2026-05-03 22:50 | 60.83468 | -148.86809 | 19477 ft | 350 kts | 279° |
| 2026-05-03 22:50 | 60.84161 | -148.91649 | 18885 ft | 355 kts | 279° |
| 2026-05-03 22:50 | 60.84848 | -148.96469 | 18289 ft | 352 kts | 279° |
| 2026-05-03 22:50 | 60.85538 | -149.01237 | 17720 ft | 347 kts | 279° |
| 2026-05-03 22:51 | 60.86227 | -149.06033 | 17071 ft | 345 kts | 280° |
| 2026-05-03 22:51 | 60.86911 | -149.10756 | 16394 ft | 345 kts | 280° |
| 2026-05-03 22:51 | 60.87587 | -149.15459 | 15762 ft | 343 kts | 280° |
| 2026-05-03 22:51 | 60.88273 | -149.20119 | 15180 ft | 340 kts | 282° |
| 2026-05-03 22:52 | 60.89097 | -149.24722 | 14812 ft | 347 kts | 287° |
| 2026-05-03 22:52 | 60.90051 | -149.29251 | 14272 ft | 348 kts | 290° |
| 2026-05-03 22:52 | 60.91065 | -149.33693 | 13701 ft | 345 kts | 290° |
| 2026-05-03 22:52 | 60.92108 | -149.38117 | 13144 ft | 342 kts | 292° |
| 2026-05-03 22:53 | 60.93146 | -149.42502 | 12548 ft | 342 kts | 291° |
| 2026-05-03 22:53 | 60.94180 | -149.46970 | 11956 ft | 345 kts | 291° |
| 2026-05-03 22:53 | 60.95203 | -149.51442 | 11405 ft | 344 kts | 291° |
| 2026-05-03 22:53 | 60.96209 | -149.55870 | 10785 ft | 340 kts | 292° |
| 2026-05-03 22:54 | 60.97180 | -149.60156 | 10592 ft | 328 kts | 292° |
| 2026-05-03 22:54 | 60.98134 | -149.64380 | 10402 ft | 313 kts | 292° |
| 2026-05-03 22:54 | 60.99033 | -149.68372 | 10294 ft | 299 kts | 291° |
| 2026-05-03 22:54 | 60.99898 | -149.72151 | 10162 ft | 287 kts | 294° |
| 2026-05-03 22:55 | 61.00957 | -149.75592 | 9896 ft | 285 kts | 307° |
| 2026-05-03 22:55 | 61.02348 | -149.78507 | 9484 ft | 286 kts | 316° |
| 2026-05-03 22:55 | 61.03847 | -149.81216 | 9120 ft | 283 kts | 318° |
| 2026-05-03 22:55 | 61.05325 | -149.83841 | 8763 ft | 282 kts | 317° |
| 2026-05-03 22:56 | 61.06781 | -149.86516 | 8403 ft | 280 kts | 317° |
| 2026-05-03 22:56 | 61.08208 | -149.89221 | 8054 ft | 278 kts | 316° |
| 2026-05-03 22:56 | 61.09560 | -149.92050 | 7699 ft | 276 kts | 308° |
| 2026-05-03 22:56 | 61.10475 | -149.95483 | 7347 ft | 272 kts | 283° |
| 2026-05-03 22:57 | 61.10628 | -149.99303 | 7018 ft | 270 kts | 266° |
| 2026-05-03 22:57 | 61.10527 | -150.03183 | 6668 ft | 267 kts | 265° |
| 2026-05-03 22:57 | 61.10419 | -150.06998 | 6317 ft | 263 kts | 266° |
| 2026-05-03 22:57 | 61.10345 | -150.10728 | 5982 ft | 260 kts | 267° |
| 2026-05-03 22:58 | 61.10293 | -150.14497 | 5641 ft | 257 kts | 268° |
| 2026-05-03 22:58 | 61.10250 | -150.18150 | 5321 ft | 254 kts | 268° |
| 2026-05-03 22:58 | 61.10207 | -150.21741 | 5174 ft | 243 kts | 268° |
| 2026-05-03 22:58 | 61.10163 | -150.25189 | 5111 ft | 236 kts | 269° |
| 2026-05-03 22:59 | 61.10120 | -150.28545 | 5040 ft | 237 kts | 269° |
| 2026-05-03 22:59 | 61.10073 | -150.31959 | 4953 ft | 235 kts | 268° |
| 2026-05-03 22:59 | 61.09995 | -150.35342 | 4943 ft | 235 kts | 267° |
| 2026-05-03 22:59 | 61.09895 | -150.38722 | 4949 ft | 235 kts | 267° |
| 2026-05-03 23:00 | 61.09797 | -150.42082 | 4955 ft | 236 kts | 267° |
| 2026-05-03 23:00 | 61.09857 | -150.45453 | 4798 ft | 235 kts | 286° |
| 2026-05-03 23:00 | 61.10688 | -150.48279 | 4356 ft | 233 kts | 321° |
| 2026-05-03 23:00 | 61.12078 | -150.49936 | 3896 ft | 232 kts | 345° |
| 2026-05-03 23:01 | 61.13651 | -150.50588 | 3418 ft | 230 kts | 360° |
| 2026-05-03 23:01 | 61.15178 | -150.50150 | 3094 ft | 220 kts | 24° |
| 2026-05-03 23:01 | 61.16372 | -150.48328 | 2955 ft | 204 kts | 50° |
| 2026-05-03 23:01 | 61.17131 | -150.46022 | 2930 ft | 187 kts | 62° |
| 2026-05-03 23:02 | 61.17520 | -150.43570 | 2954 ft | 174 kts | 84° |
| 2026-05-03 23:02 | 61.17261 | -150.41132 | 2966 ft | 180 kts | 115° |
| 2026-05-03 23:02 | 61.16694 | -150.38860 | 2959 ft | 174 kts | 103° |
| 2026-05-03 23:02 | 61.16636 | -150.36348 | 2973 ft | 174 kts | 84° |
| 2026-05-03 23:03 | 61.16705 | -150.33824 | 2952 ft | 175 kts | 88° |
| 2026-05-03 23:03 | 61.16711 | -150.31291 | 2763 ft | 177 kts | 88° |
| 2026-05-03 23:03 | 61.16719 | -150.28770 | 2510 ft | 174 kts | 88° |
| 2026-05-03 23:03 | 61.16728 | -150.26263 | 2274 ft | 171 kts | 88° |
| 2026-05-03 23:04 | 61.16737 | -150.23747 | 2022 ft | 171 kts | 88° |
| 2026-05-03 23:04 | 61.16742 | -150.21388 | 1793 ft | 156 kts | 88° |
| 2026-05-03 23:04 | 61.16748 | -150.19240 | 1572 ft | 143 kts | 89° |
| 2026-05-03 23:04 | 61.16751 | -150.17284 | 1395 ft | 131 kts | 89° |
| 2026-05-03 23:05 | 61.16756 | -150.15440 | 1222 ft | 128 kts | 89° |
| 2026-05-03 23:05 | 61.16760 | -150.13571 | 1044 ft | 128 kts | 89° |
| 2026-05-03 23:05 | 61.16765 | -150.11710 | 873 ft | 130 kts | 89° |
| 2026-05-03 23:05 | 61.16781 | -150.09827 | 698 ft | 131 kts | 89° |
| 2026-05-03 23:06 | 61.16788 | -150.07960 | 527 ft | 131 kts | 90° |
| 2026-05-03 23:06 | 61.16782 | -150.06058 | 339 ft | 132 kts | 91° |
| 2026-05-03 23:06 | 61.16780 | -150.04150 | 190 ft | 133 kts | 90° |
| 2026-05-03 23:06 | 61.16782 | -150.02269 | 118 ft | 120 kts | 90° |
| 2026-05-03 23:07 | 61.16785 | -150.01013 | 117 ft | 67 kts | 88° |
| 2026-05-03 23:07 | 61.16785 | -150.00124 | 117 ft | 52 kts | 86° |
| 2026-05-03 23:07 | 61.16817 | -149.99641 | 117 ft | 25 kts | 65° |
| 2026-05-03 23:07 | 61.16906 | -149.99393 | 117 ft | 19 kts | 37° |
| 2026-05-03 23:08 | 61.17014 | -149.99239 | 117 ft | 18 kts | 35° |
| 2026-05-03 23:08 | 61.17117 | -149.99085 | 117 ft | 18 kts | 41° |
| 2026-05-03 23:08 | 61.17196 | -149.98904 | 117 ft | 16 kts | 49° |
| 2026-05-03 23:08 | 61.17262 | -149.98759 | 117 ft | 13 kts | 34° |
| 2026-05-03 23:09 | 61.17341 | -149.98662 | 117 ft | 11 kts | 33° |
| 2026-05-03 23:09 | 61.17330 | -149.98557 | 117 ft | 8 kts | 136° |
| 2026-05-03 23:09 | 61.17300 | -149.98500 | 117 ft | 1 kts | 139° |
| 2026-05-03 23:09 | 61.17300 | -149.98498 | 117 ft | 0 kts | 139° |